Date,TemperatureHighF,TemperatureAvgF,TemperatureLowF,DewpointHighF,DewpointAvgF,DewpointLowF,HumidityHigh,HumidityAvg,HumidityLow,PressureMaxIn,PressureMinIn,WindSpeedMaxMPH,WindSpeedAvgMPH,GustSpeedMaxMPH,PrecipitationSumIn
2013-1-1,30.3,24.8,18.2,24.6,18.8,10.4,92,78,68,30.38,30.12,34,12,34,0.00
2013-1-2,25.0,18.1,10.0,13.1,6.8,0.5,71,61,46,30.50,30.34,21,9,21,0.00
2013-1-3,41.7,23.9,11.2,18.4,7.6,0.3,62,51,22,30.42,30.10,16,7,16,0.00
2013-1-4,40.5,31.4,21.1,25.0,18.1,9.6,75,58,43,30.17,30.06,28,9,28,0.00
2013-1-5,38.1,26.6,17.8,23.3,16.7,7.5,84,67,43,30.35,30.10,23,6,23,0.00
2013-1-6,41.5,30.9,18.1,27.5,18.4,7.1,72,60,44,30.12,29.82,33,12,33,0.00
2013-1-7,40.7,34.1,24.4,28.8,23.3,15.8,78,64,48,29.96,29.56,34,12,34,0.00
2013-1-8,39.9,32.6,25.7,29.1,22.2,17.0,89,66,50,30.03,29.57,44,15,44,0.00
2013-1-9,48.9,42.7,33.9,28.3,25.8,20.5,63,51,41,29.91,29.57,36,12,36,0.00
2013-1-10,41.9,22.3,7.2,26.2,16.9,4.2,98,81,48,29.99,29.50,27,13,27,0.00
2013-1-11,7.6,2.8,1.1,4.1,-0.7,-2.3,87,85,84,30.44,29.97,28,15,28,0.00
2013-1-12,11.3,5.9,1.5,8.2,2.2,-2.2,87,84,81,30.42,30.33,23,7,23,0.00
2013-1-13,13.7,10.2,1.2,9.6,6.4,-3.0,92,84,80,30.41,30.28,28,10,28,0.00
2013-1-14,24.8,15.8,9.8,22.5,8.9,2.5,91,74,60,30.31,30.08,24,14,24,0.00
2013-1-15,37.7,31.0,24.0,27.3,24.7,21.7,93,78,64,30.11,30.02,37,17,37,0.00
2013-1-16,39.5,33.6,27.8,24.5,21.5,18.8,72,61,49,30.33,30.03,34,14,34,0.00
2013-1-17,43.2,35.0,22.3,27.0,21.5,15.4,78,58,40,30.36,29.91,37,14,37,0.00
2013-1-18,44.6,38.7,32.4,25.4,21.5,18.5,61,50,42,29.98,29.81,33,13,37,0.00
2013-1-19,37.6,29.2,23.3,24.7,19.9,16.0,89,69,46,30.33,29.98,22,6,22,0.00
2013-1-20,28.1,15.6,12.4,17.7,11.8,8.4,92,85,65,30.61,30.23,33,8,33,0.00
2013-1-21,36.1,23.6,13.4,22.1,15.6,10.7,89,72,54,30.48,30.07,13,1,13,0.00
2013-1-22,44.4,32.1,18.0,19.4,14.7,7.9,65,49,32,30.18,30.03,17,7,17,0.00
2013-1-23,47.8,24.8,19.7,25.4,16.1,12.5,80,71,36,30.23,29.82,29,11,29,0.00
2013-1-24,47.9,43.0,39.1,28.4,25.5,21.2,63,50,37,29.92,29.79,33,18,33,0.00
2013-1-25,46.4,40.1,34.0,30.5,27.8,23.1,78,62,52,30.03,29.85,24,9,24,0.00
2013-1-26,51.1,40.7,30.9,32.3,29.8,27.0,94,67,41,29.85,29.61,29,7,29,0.00
2013-1-27,33.3,29.2,23.6,30.0,24.5,16.8,95,83,67,29.89,29.71,14,5,14,0.01
2013-1-28,32.2,25.2,16.3,17.9,14.5,10.9,83,64,46,29.93,29.74,20,7,20,0.00
2013-1-29,25.7,6.5,-5.9,20.4,2.6,-10.0,92,84,67,30.45,29.72,33,10,33,0.00
2013-1-30,29.7,16.2,-1.9,23.4,12.2,-7.0,91,84,65,30.27,30.02,25,10,25,0.00
2013-1-31,34.4,17.1,0.8,30.3,14.2,-2.8,92,88,84,30.42,30.02,20,4,20,0.03